sensor_id;sensor_type;location;lat;lon;timestamp;temperature;humidity
49222;DHT22;35047;37.588;-122.048;2024-02-16T00:01:42;24.00;63.60
49222;DHT22;35047;37.588;-122.048;2024-02-16T00:04:08;23.90;64.30
49222;DHT22;35047;37.588;-122.048;2024-02-16T00:06:35;23.80;64.00
49222;DHT22;35047;37.588;-122.048;2024-02-16T00:09:01;23.70;64.30
49222;DHT22;35047;37.588;-122.048;2024-02-16T00:11:28;23.70;64.40
49222;DHT22;35047;37.588;-122.048;2024-02-16T00:13:54;23.60;64.20
49222;DHT22;35047;37.588;-122.048;2024-02-16T00:16:21;23.50;64.70
49222;DHT22;35047;37.588;-122.048;2024-02-16T00:18:47;23.40;64.80
49222;DHT22;35047;37.588;-122.048;2024-02-16T00:21:14;23.30;65.10
49222;DHT22;35047;37.588;-122.048;2024-02-16T00:23:42;23.20;65.80
49222;DHT22;35047;37.588;-122.048;2024-02-16T00:26:10;23.20;66.10
49222;DHT22;35047;37.588;-122.048;2024-02-16T00:28:36;23.00;65.30
49222;DHT22;35047;37.588;-122.048;2024-02-16T00:31:03;23.00;66.10
49222;DHT22;35047;37.588;-122.048;2024-02-16T00:33:31;23.00;66.60
49222;DHT22;35047;37.588;-122.048;2024-02-16T00:35:58;23.00;66.60
49222;DHT22;35047;37.588;-122.048;2024-02-16T00:38:24;22.90;66.90
49222;DHT22;35047;37.588;-122.048;2024-02-16T00:40:51;22.80;66.50
49222;DHT22;35047;37.588;-122.048;2024-02-16T00:43:17;22.80;66.60
49222;DHT22;35047;37.588;-122.048;2024-02-16T00:45:44;22.80;67.30
49222;DHT22;35047;37.588;-122.048;2024-02-16T00:48:11;22.70;67.30
49222;DHT22;35047;37.588;-122.048;2024-02-16T00:50:38;22.70;67.80
49222;DHT22;35047;37.588;-122.048;2024-02-16T00:53:04;22.70;68.00
49222;DHT22;35047;37.588;-122.048;2024-02-16T00:55:31;22.60;67.90
49222;DHT22;35047;37.588;-122.048;2024-02-16T00:57:57;22.50;68.20
49222;DHT22;35047;37.588;-122.048;2024-02-16T01:00:24;22.50;68.40
49222;DHT22;35047;37.588;-122.048;2024-02-16T01:02:51;22.40;69.00
49222;DHT22;35047;37.588;-122.048;2024-02-16T01:05:21;22.30;68.80
49222;DHT22;35047;37.588;-122.048;2024-02-16T01:07:49;22.20;69.40
49222;DHT22;35047;37.588;-122.048;2024-02-16T01:10:15;22.20;69.70
49222;DHT22;35047;37.588;-122.048;2024-02-16T01:12:42;22.10;69.90
49222;DHT22;35047;37.588;-122.048;2024-02-16T01:15:08;22.10;70.00
49222;DHT22;35047;37.588;-122.048;2024-02-16T01:17:35;22.00;70.50
49222;DHT22;35047;37.588;-122.048;2024-02-16T01:20:02;21.90;70.60
49222;DHT22;35047;37.588;-122.048;2024-02-16T01:22:30;21.80;71.10
49222;DHT22;35047;37.588;-122.048;2024-02-16T01:24:56;21.80;72.20
49222;DHT22;35047;37.588;-122.048;2024-02-16T01:27:23;21.70;72.80
49222;DHT22;35047;37.588;-122.048;2024-02-16T01:29:49;21.60;73.30
49222;DHT22;35047;37.588;-122.048;2024-02-16T01:32:16;21.60;74.10
49222;DHT22;35047;37.588;-122.048;2024-02-16T01:34:42;21.50;75.20
49222;DHT22;35047;37.588;-122.048;2024-02-16T01:37:12;21.50;74.60
49222;DHT22;35047;37.588;-122.048;2024-02-16T01:39:39;21.40;75.20
49222;DHT22;35047;37.588;-122.048;2024-02-16T01:42:06;21.30;75.30
49222;DHT22;35047;37.588;-122.048;2024-02-16T01:44:32;21.20;76.30
49222;DHT22;35047;37.588;-122.048;2024-02-16T01:46:59;21.10;75.90
49222;DHT22;35047;37.588;-122.048;2024-02-16T01:49:25;21.10;76.20
49222;DHT22;35047;37.588;-122.048;2024-02-16T01:51:52;21.00;76.40
49222;DHT22;35047;37.588;-122.048;2024-02-16T01:54:18;20.90;76.70
49222;DHT22;35047;37.588;-122.048;2024-02-16T01:56:45;20.80;77.10
49222;DHT22;35047;37.588;-122.048;2024-02-16T01:59:12;20.80;77.40
49222;DHT22;35047;37.588;-122.048;2024-02-16T02:01:38;20.80;77.80
49222;DHT22;35047;37.588;-122.048;2024-02-16T02:04:05;20.70;78.10
49222;DHT22;35047;37.588;-122.048;2024-02-16T02:06:32;20.60;78.30
49222;DHT22;35047;37.588;-122.048;2024-02-16T02:08:58;20.50;78.60
49222;DHT22;35047;37.588;-122.048;2024-02-16T02:11:25;20.50;79.10
49222;DHT22;35047;37.588;-122.048;2024-02-16T02:13:51;20.40;79.30
49222;DHT22;35047;37.588;-122.048;2024-02-16T02:16:19;20.40;79.80
49222;DHT22;35047;37.588;-122.048;2024-02-16T02:18:47;20.30;80.10
49222;DHT22;35047;37.588;-122.048;2024-02-16T02:21:13;20.30;80.40
49222;DHT22;35047;37.588;-122.048;2024-02-16T02:23:41;20.20;80.20
49222;DHT22;35047;37.588;-122.048;2024-02-16T02:26:07;20.20;80.80
49222;DHT22;35047;37.588;-122.048;2024-02-16T02:28:34;20.10;81.20
49222;DHT22;35047;37.588;-122.048;2024-02-16T02:31:00;20.10;81.20
49222;DHT22;35047;37.588;-122.048;2024-02-16T02:33:27;20.00;81.20
49222;DHT22;35047;37.588;-122.048;2024-02-16T02:35:53;20.00;81.50
49222;DHT22;35047;37.588;-122.048;2024-02-16T02:38:19;19.90;81.70
49222;DHT22;35047;37.588;-122.048;2024-02-16T02:40:46;19.90;81.80
49222;DHT22;35047;37.588;-122.048;2024-02-16T02:43:12;19.80;82.20
49222;DHT22;35047;37.588;-122.048;2024-02-16T02:45:39;19.80;82.50
49222;DHT22;35047;37.588;-122.048;2024-02-16T02:48:06;19.70;82.70
49222;DHT22;35047;37.588;-122.048;2024-02-16T02:50:33;19.70;82.70
49222;DHT22;35047;37.588;-122.048;2024-02-16T02:52:59;19.60;83.10
49222;DHT22;35047;37.588;-122.048;2024-02-16T02:55:26;19.60;83.40
49222;DHT22;35047;37.588;-122.048;2024-02-16T02:57:52;19.50;83.50
49222;DHT22;35047;37.588;-122.048;2024-02-16T03:00:19;19.50;83.70
49222;DHT22;35047;37.588;-122.048;2024-02-16T03:02:45;19.40;83.90
49222;DHT22;35047;37.588;-122.048;2024-02-16T03:05:13;19.40;83.70
49222;DHT22;35047;37.588;-122.048;2024-02-16T03:07:39;19.40;83.80
49222;DHT22;35047;37.588;-122.048;2024-02-16T03:10:06;19.40;83.70
49222;DHT22;35047;37.588;-122.048;2024-02-16T03:12:35;19.30;83.60
49222;DHT22;35047;37.588;-122.048;2024-02-16T03:15:01;19.30;83.60
49222;DHT22;35047;37.588;-122.048;2024-02-16T03:17:29;19.30;83.90
49222;DHT22;35047;37.588;-122.048;2024-02-16T03:19:56;19.20;83.90
49222;DHT22;35047;37.588;-122.048;2024-02-16T03:22:22;19.20;84.10
49222;DHT22;35047;37.588;-122.048;2024-02-16T03:24:48;19.10;84.20
49222;DHT22;35047;37.588;-122.048;2024-02-16T03:27:15;19.10;84.10
49222;DHT22;35047;37.588;-122.048;2024-02-16T03:29:41;19.10;83.90
49222;DHT22;35047;37.588;-122.048;2024-02-16T03:32:08;19.10;83.70
49222;DHT22;35047;37.588;-122.048;2024-02-16T03:34:35;19.00;83.50
49222;DHT22;35047;37.588;-122.048;2024-02-16T03:37:01;19.00;83.80
49222;DHT22;35047;37.588;-122.048;2024-02-16T03:39:28;18.90;83.90
49222;DHT22;35047;37.588;-122.048;2024-02-16T03:41:54;18.90;83.80
49222;DHT22;35047;37.588;-122.048;2024-02-16T03:44:21;18.90;83.90
49222;DHT22;35047;37.588;-122.048;2024-02-16T03:46:47;18.80;84.00
49222;DHT22;35047;37.588;-122.048;2024-02-16T03:49:14;18.80;84.30
49222;DHT22;35047;37.588;-122.048;2024-02-16T03:51:40;18.80;84.50
49222;DHT22;35047;37.588;-122.048;2024-02-16T03:54:06;18.70;84.40
49222;DHT22;35047;37.588;-122.048;2024-02-16T03:56:33;18.70;84.30
49222;DHT22;35047;37.588;-122.048;2024-02-16T03:59:00;18.70;84.30
49222;DHT22;35047;37.588;-122.048;2024-02-16T04:01:26;18.70;84.30
49222;DHT22;35047;37.588;-122.048;2024-02-16T04:03:53;18.60;84.20
49222;DHT22;35047;37.588;-122.048;2024-02-16T04:06:20;18.60;84.30
49222;DHT22;35047;37.588;-122.048;2024-02-16T04:08:46;18.50;84.30
49222;DHT22;35047;37.588;-122.048;2024-02-16T04:11:14;18.50;84.30
49222;DHT22;35047;37.588;-122.048;2024-02-16T04:13:41;18.50;84.30
49222;DHT22;35047;37.588;-122.048;2024-02-16T04:16:08;18.40;84.30
49222;DHT22;35047;37.588;-122.048;2024-02-16T04:18:34;18.40;84.50
49222;DHT22;35047;37.588;-122.048;2024-02-16T04:21:01;18.30;84.60
49222;DHT22;35047;37.588;-122.048;2024-02-16T04:23:46;18.30;84.60
49222;DHT22;35047;37.588;-122.048;2024-02-16T04:26:13;18.20;84.60
49222;DHT22;35047;37.588;-122.048;2024-02-16T04:28:40;18.20;84.90
49222;DHT22;35047;37.588;-122.048;2024-02-16T04:31:06;18.20;85.10
49222;DHT22;35047;37.588;-122.048;2024-02-16T04:33:32;18.10;85.20
49222;DHT22;35047;37.588;-122.048;2024-02-16T04:35:59;18.00;85.20
49222;DHT22;35047;37.588;-122.048;2024-02-16T04:38:25;17.90;85.50
49222;DHT22;35047;37.588;-122.048;2024-02-16T04:40:52;17.90;85.80
49222;DHT22;35047;37.588;-122.048;2024-02-16T04:43:18;17.80;85.80
49222;DHT22;35047;37.588;-122.048;2024-02-16T04:45:45;17.80;85.90
49222;DHT22;35047;37.588;-122.048;2024-02-16T04:48:11;17.80;86.00
49222;DHT22;35047;37.588;-122.048;2024-02-16T04:50:38;17.80;86.00
49222;DHT22;35047;37.588;-122.048;2024-02-16T04:53:04;17.80;86.00
49222;DHT22;35047;37.588;-122.048;2024-02-16T04:55:31;17.70;85.90
49222;DHT22;35047;37.588;-122.048;2024-02-16T04:57:57;17.70;86.40
49222;DHT22;35047;37.588;-122.048;2024-02-16T05:00:24;17.70;86.50
49222;DHT22;35047;37.588;-122.048;2024-02-16T05:02:51;17.60;86.50
49222;DHT22;35047;37.588;-122.048;2024-02-16T05:05:19;17.60;86.60
49222;DHT22;35047;37.588;-122.048;2024-02-16T05:07:51;17.60;86.70
49222;DHT22;35047;37.588;-122.048;2024-02-16T05:10:17;17.50;86.50
49222;DHT22;35047;37.588;-122.048;2024-02-16T05:12:45;17.50;86.70
49222;DHT22;35047;37.588;-122.048;2024-02-16T05:15:12;17.40;87.40
49222;DHT22;35047;37.588;-122.048;2024-02-16T05:17:41;17.40;87.50
49222;DHT22;35047;37.588;-122.048;2024-02-16T05:20:12;17.40;87.80
49222;DHT22;35047;37.588;-122.048;2024-02-16T05:22:42;17.40;88.10
49222;DHT22;35047;37.588;-122.048;2024-02-16T05:25:10;17.30;88.00
49222;DHT22;35047;37.588;-122.048;2024-02-16T05:27:36;17.30;88.00
49222;DHT22;35047;37.588;-122.048;2024-02-16T05:30:04;17.30;88.30
49222;DHT22;35047;37.588;-122.048;2024-02-16T05:32:37;17.30;88.30
49222;DHT22;35047;37.588;-122.048;2024-02-16T05:35:04;17.20;88.10
49222;DHT22;35047;37.588;-122.048;2024-02-16T05:37:47;17.20;88.50
49222;DHT22;35047;37.588;-122.048;2024-02-16T05:40:23;17.20;88.40
49222;DHT22;35047;37.588;-122.048;2024-02-16T05:43:01;17.20;88.30
49222;DHT22;35047;37.588;-122.048;2024-02-16T05:45:28;17.10;88.50
49222;DHT22;35047;37.588;-122.048;2024-02-16T05:47:55;17.10;88.40
49222;DHT22;35047;37.588;-122.048;2024-02-16T05:50:21;17.10;88.40
49222;DHT22;35047;37.588;-122.048;2024-02-16T05:52:48;17.10;88.50
49222;DHT22;35047;37.588;-122.048;2024-02-16T05:55:15;17.10;88.50
49222;DHT22;35047;37.588;-122.048;2024-02-16T05:57:44;17.00;88.70
49222;DHT22;35047;37.588;-122.048;2024-02-16T06:00:12;17.00;88.70
49222;DHT22;35047;37.588;-122.048;2024-02-16T06:02:39;17.00;89.10
49222;DHT22;35047;37.588;-122.048;2024-02-16T06:05:05;16.90;90.00
49222;DHT22;35047;37.588;-122.048;2024-02-16T06:07:35;16.90;89.50
49222;DHT22;35047;37.588;-122.048;2024-02-16T06:10:05;16.90;89.60
49222;DHT22;35047;37.588;-122.048;2024-02-16T06:12:36;16.90;89.60
49222;DHT22;35047;37.588;-122.048;2024-02-16T06:15:07;16.90;89.80
49222;DHT22;35047;37.588;-122.048;2024-02-16T06:17:33;16.90;89.90
49222;DHT22;35047;37.588;-122.048;2024-02-16T06:20:00;16.90;89.60
49222;DHT22;35047;37.588;-122.048;2024-02-16T06:22:27;16.90;89.70
49222;DHT22;35047;37.588;-122.048;2024-02-16T06:24:53;16.80;89.90
49222;DHT22;35047;37.588;-122.048;2024-02-16T06:27:20;16.80;90.00
49222;DHT22;35047;37.588;-122.048;2024-02-16T06:29:46;16.80;90.00
49222;DHT22;35047;37.588;-122.048;2024-02-16T06:32:12;16.80;90.00
49222;DHT22;35047;37.588;-122.048;2024-02-16T06:34:39;16.80;90.00
49222;DHT22;35047;37.588;-122.048;2024-02-16T06:37:06;16.80;89.90
49222;DHT22;35047;37.588;-122.048;2024-02-16T06:39:33;16.80;90.00
49222;DHT22;35047;37.588;-122.048;2024-02-16T06:42:00;16.80;90.00
49222;DHT22;35047;37.588;-122.048;2024-02-16T06:44:26;16.80;90.10
49222;DHT22;35047;37.588;-122.048;2024-02-16T06:46:53;16.70;90.00
49222;DHT22;35047;37.588;-122.048;2024-02-16T06:49:19;16.70;90.00
49222;DHT22;35047;37.588;-122.048;2024-02-16T06:51:46;16.70;90.10
49222;DHT22;35047;37.588;-122.048;2024-02-16T06:54:12;16.70;90.10
49222;DHT22;35047;37.588;-122.048;2024-02-16T06:56:40;16.70;90.10
49222;DHT22;35047;37.588;-122.048;2024-02-16T06:59:06;16.70;90.20
49222;DHT22;35047;37.588;-122.048;2024-02-16T07:01:33;16.70;90.20
49222;DHT22;35047;37.588;-122.048;2024-02-16T07:03:59;16.60;90.20
49222;DHT22;35047;37.588;-122.048;2024-02-16T07:06:27;16.60;90.30
49222;DHT22;35047;37.588;-122.048;2024-02-16T07:08:54;16.50;90.30
49222;DHT22;35047;37.588;-122.048;2024-02-16T07:11:20;16.50;90.40
49222;DHT22;35047;37.588;-122.048;2024-02-16T07:13:47;16.40;90.50
49222;DHT22;35047;37.588;-122.048;2024-02-16T07:16:13;16.40;90.60
49222;DHT22;35047;37.588;-122.048;2024-02-16T07:18:40;16.40;90.80
49222;DHT22;35047;37.588;-122.048;2024-02-16T07:21:08;16.40;90.50
49222;DHT22;35047;37.588;-122.048;2024-02-16T07:23:35;16.40;90.50
49222;DHT22;35047;37.588;-122.048;2024-02-16T07:26:01;16.40;90.50
49222;DHT22;35047;37.588;-122.048;2024-02-16T07:28:28;16.40;90.80
49222;DHT22;35047;37.588;-122.048;2024-02-16T07:30:55;16.40;90.80
49222;DHT22;35047;37.588;-122.048;2024-02-16T07:33:22;16.30;90.80
49222;DHT22;35047;37.588;-122.048;2024-02-16T07:35:51;16.40;90.80
49222;DHT22;35047;37.588;-122.048;2024-02-16T07:38:17;16.30;90.80
49222;DHT22;35047;37.588;-122.048;2024-02-16T07:40:44;16.30;90.80
49222;DHT22;35047;37.588;-122.048;2024-02-16T07:43:11;16.40;90.80
49222;DHT22;35047;37.588;-122.048;2024-02-16T07:45:38;16.40;90.80
49222;DHT22;35047;37.588;-122.048;2024-02-16T07:48:05;16.40;90.80
49222;DHT22;35047;37.588;-122.048;2024-02-16T07:50:33;16.30;90.70
49222;DHT22;35047;37.588;-122.048;2024-02-16T07:53:01;16.30;90.80
49222;DHT22;35047;37.588;-122.048;2024-02-16T07:55:27;16.30;90.70
49222;DHT22;35047;37.588;-122.048;2024-02-16T07:57:54;16.30;90.60
49222;DHT22;35047;37.588;-122.048;2024-02-16T08:00:20;16.30;90.60
49222;DHT22;35047;37.588;-122.048;2024-02-16T08:02:47;16.30;90.60
49222;DHT22;35047;37.588;-122.048;2024-02-16T08:05:14;16.30;90.60
49222;DHT22;35047;37.588;-122.048;2024-02-16T08:07:41;16.20;90.50
49222;DHT22;35047;37.588;-122.048;2024-02-16T08:10:11;16.20;90.70
49222;DHT22;35047;37.588;-122.048;2024-02-16T08:12:38;16.20;90.70
49222;DHT22;35047;37.588;-122.048;2024-02-16T08:15:05;16.20;90.90
49222;DHT22;35047;37.588;-122.048;2024-02-16T08:17:36;16.20;90.90
49222;DHT22;35047;37.588;-122.048;2024-02-16T08:20:03;16.20;90.80
49222;DHT22;35047;37.588;-122.048;2024-02-16T08:22:30;16.20;90.90
49222;DHT22;35047;37.588;-122.048;2024-02-16T08:24:58;16.20;90.90
49222;DHT22;35047;37.588;-122.048;2024-02-16T08:27:24;16.20;90.80
49222;DHT22;35047;37.588;-122.048;2024-02-16T08:29:51;16.10;90.70
49222;DHT22;35047;37.588;-122.048;2024-02-16T08:32:20;16.10;90.70
49222;DHT22;35047;37.588;-122.048;2024-02-16T08:34:46;16.10;90.60
49222;DHT22;35047;37.588;-122.048;2024-02-16T08:37:16;16.00;90.60
49222;DHT22;35047;37.588;-122.048;2024-02-16T08:39:43;16.00;90.70
49222;DHT22;35047;37.588;-122.048;2024-02-16T08:42:09;16.00;90.70
49222;DHT22;35047;37.588;-122.048;2024-02-16T08:44:37;16.00;90.60
49222;DHT22;35047;37.588;-122.048;2024-02-16T08:47:07;15.90;90.90
49222;DHT22;35047;37.588;-122.048;2024-02-16T08:49:34;15.90;90.90
49222;DHT22;35047;37.588;-122.048;2024-02-16T08:52:01;15.90;91.00
49222;DHT22;35047;37.588;-122.048;2024-02-16T08:54:27;15.90;91.10
49222;DHT22;35047;37.588;-122.048;2024-02-16T08:56:54;15.90;91.20
49222;DHT22;35047;37.588;-122.048;2024-02-16T08:59:21;15.80;91.40
49222;DHT22;35047;37.588;-122.048;2024-02-16T09:01:47;15.80;91.40
49222;DHT22;35047;37.588;-122.048;2024-02-16T09:04:14;15.80;91.40
49222;DHT22;35047;37.588;-122.048;2024-02-16T09:06:41;15.80;91.40
49222;DHT22;35047;37.588;-122.048;2024-02-16T09:09:08;15.80;91.40
49222;DHT22;35047;37.588;-122.048;2024-02-16T09:11:35;15.70;91.40
49222;DHT22;35047;37.588;-122.048;2024-02-16T09:14:01;15.70;91.40
49222;DHT22;35047;37.588;-122.048;2024-02-16T09:16:28;15.70;91.40
49222;DHT22;35047;37.588;-122.048;2024-02-16T09:18:54;15.70;91.40
49222;DHT22;35047;37.588;-122.048;2024-02-16T09:21:21;15.80;91.70
49222;DHT22;35047;37.588;-122.048;2024-02-16T09:23:50;15.70;91.30
49222;DHT22;35047;37.588;-122.048;2024-02-16T09:26:16;15.70;91.30
49222;DHT22;35047;37.588;-122.048;2024-02-16T09:28:42;15.70;91.30
49222;DHT22;35047;37.588;-122.048;2024-02-16T09:31:13;15.70;91.30
49222;DHT22;35047;37.588;-122.048;2024-02-16T09:33:40;15.70;91.30
49222;DHT22;35047;37.588;-122.048;2024-02-16T09:36:06;15.70;91.40
49222;DHT22;35047;37.588;-122.048;2024-02-16T09:38:33;15.70;91.50
49222;DHT22;35047;37.588;-122.048;2024-02-16T09:40:59;15.70;91.40
49222;DHT22;35047;37.588;-122.048;2024-02-16T09:43:28;15.60;91.40
49222;DHT22;35047;37.588;-122.048;2024-02-16T09:45:59;15.60;91.50
49222;DHT22;35047;37.588;-122.048;2024-02-16T09:48:27;15.60;91.40
49222;DHT22;35047;37.588;-122.048;2024-02-16T09:50:57;15.60;91.50
49222;DHT22;35047;37.588;-122.048;2024-02-16T09:53:28;15.60;91.60
49222;DHT22;35047;37.588;-122.048;2024-02-16T09:55:55;15.60;91.90
49222;DHT22;35047;37.588;-122.048;2024-02-16T09:58:22;15.60;91.70
49222;DHT22;35047;37.588;-122.048;2024-02-16T10:00:54;15.60;91.70
49222;DHT22;35047;37.588;-122.048;2024-02-16T10:03:25;15.50;91.70
49222;DHT22;35047;37.588;-122.048;2024-02-16T10:06:03;15.60;91.80
49222;DHT22;35047;37.588;-122.048;2024-02-16T10:08:30;15.60;91.80
49222;DHT22;35047;37.588;-122.048;2024-02-16T10:11:04;15.50;91.80
49222;DHT22;35047;37.588;-122.048;2024-02-16T10:13:31;15.50;91.80
49222;DHT22;35047;37.588;-122.048;2024-02-16T10:16:08;15.50;91.90
49222;DHT22;35047;37.588;-122.048;2024-02-16T10:18:36;15.60;91.90
49222;DHT22;35047;37.588;-122.048;2024-02-16T10:21:03;15.60;91.90
49222;DHT22;35047;37.588;-122.048;2024-02-16T10:23:29;15.50;91.90
49222;DHT22;35047;37.588;-122.048;2024-02-16T10:25:56;15.60;91.90
49222;DHT22;35047;37.588;-122.048;2024-02-16T10:28:25;15.50;91.90
49222;DHT22;35047;37.588;-122.048;2024-02-16T10:31:00;15.50;91.90
49222;DHT22;35047;37.588;-122.048;2024-02-16T10:33:32;15.50;92.00
49222;DHT22;35047;37.588;-122.048;2024-02-16T10:36:00;15.50;92.10
49222;DHT22;35047;37.588;-122.048;2024-02-16T10:38:29;15.50;92.00
49222;DHT22;35047;37.588;-122.048;2024-02-16T10:40:56;15.40;91.90
49222;DHT22;35047;37.588;-122.048;2024-02-16T10:43:26;15.40;92.00
49222;DHT22;35047;37.588;-122.048;2024-02-16T10:45:54;15.40;92.00
49222;DHT22;35047;37.588;-122.048;2024-02-16T10:48:22;15.40;92.00
49222;DHT22;35047;37.588;-122.048;2024-02-16T10:50:49;15.40;92.00
49222;DHT22;35047;37.588;-122.048;2024-02-16T10:53:28;15.40;92.00
49222;DHT22;35047;37.588;-122.048;2024-02-16T10:56:00;15.40;91.90
49222;DHT22;35047;37.588;-122.048;2024-02-16T10:58:29;15.30;92.10
49222;DHT22;35047;37.588;-122.048;2024-02-16T11:00:57;15.30;92.10
49222;DHT22;35047;37.588;-122.048;2024-02-16T11:03:25;15.30;92.10
49222;DHT22;35047;37.588;-122.048;2024-02-16T11:05:53;15.30;92.30
49222;DHT22;35047;37.588;-122.048;2024-02-16T11:08:23;15.30;92.30
49222;DHT22;35047;37.588;-122.048;2024-02-16T11:11:00;15.30;92.30
49222;DHT22;35047;37.588;-122.048;2024-02-16T11:13:28;15.30;92.20
49222;DHT22;35047;37.588;-122.048;2024-02-16T11:18:32;15.30;92.30
49222;DHT22;35047;37.588;-122.048;2024-02-16T11:21:02;15.30;92.60
49222;DHT22;35047;37.588;-122.048;2024-02-16T11:23:30;15.30;92.30
49222;DHT22;35047;37.588;-122.048;2024-02-16T11:26:04;15.30;92.20
49222;DHT22;35047;37.588;-122.048;2024-02-16T11:28:35;15.30;92.20
49222;DHT22;35047;37.588;-122.048;2024-02-16T11:31:02;15.30;92.20
49222;DHT22;35047;37.588;-122.048;2024-02-16T11:33:33;15.30;92.20
49222;DHT22;35047;37.588;-122.048;2024-02-16T11:36:04;15.30;92.30
49222;DHT22;35047;37.588;-122.048;2024-02-16T11:38:34;15.30;92.30
49222;DHT22;35047;37.588;-122.048;2024-02-16T11:41:06;15.30;92.30
49222;DHT22;35047;37.588;-122.048;2024-02-16T11:43:35;15.30;92.30
49222;DHT22;35047;37.588;-122.048;2024-02-16T11:46:12;15.30;92.30
49222;DHT22;35047;37.588;-122.048;2024-02-16T11:48:39;15.30;92.40
49222;DHT22;35047;37.588;-122.048;2024-02-16T11:51:06;15.30;92.40
49222;DHT22;35047;37.588;-122.048;2024-02-16T11:53:33;15.30;92.40
49222;DHT22;35047;37.588;-122.048;2024-02-16T11:56:00;15.30;92.40
49222;DHT22;35047;37.588;-122.048;2024-02-16T11:58:26;15.20;92.40
49222;DHT22;35047;37.588;-122.048;2024-02-16T12:00:53;15.20;92.30
49222;DHT22;35047;37.588;-122.048;2024-02-16T12:03:21;15.20;92.30
49222;DHT22;35047;37.588;-122.048;2024-02-16T12:05:58;15.20;92.30
49222;DHT22;35047;37.588;-122.048;2024-02-16T12:08:32;15.20;92.40
49222;DHT22;35047;37.588;-122.048;2024-02-16T12:11:02;15.20;92.40
49222;DHT22;35047;37.588;-122.048;2024-02-16T12:13:29;15.20;92.30
49222;DHT22;35047;37.588;-122.048;2024-02-16T12:15:55;15.20;92.40
49222;DHT22;35047;37.588;-122.048;2024-02-16T12:18:26;15.20;92.30
49222;DHT22;35047;37.588;-122.048;2024-02-16T12:21:02;15.20;92.30
49222;DHT22;35047;37.588;-122.048;2024-02-16T12:23:29;15.10;92.30
49222;DHT22;35047;37.588;-122.048;2024-02-16T12:25:59;15.10;92.30
49222;DHT22;35047;37.588;-122.048;2024-02-16T12:28:27;15.10;92.30
49222;DHT22;35047;37.588;-122.048;2024-02-16T12:30:58;15.10;92.30
49222;DHT22;35047;37.588;-122.048;2024-02-16T12:33:25;15.10;92.40
49222;DHT22;35047;37.588;-122.048;2024-02-16T12:35:52;15.10;92.40
49222;DHT22;35047;37.588;-122.048;2024-02-16T12:38:19;15.10;92.50
49222;DHT22;35047;37.588;-122.048;2024-02-16T12:40:49;15.10;92.40
49222;DHT22;35047;37.588;-122.048;2024-02-16T12:43:16;15.10;92.30
49222;DHT22;35047;37.588;-122.048;2024-02-16T12:45:44;15.10;92.30
49222;DHT22;35047;37.588;-122.048;2024-02-16T12:48:11;15.10;92.30
49222;DHT22;35047;37.588;-122.048;2024-02-16T12:50:40;15.10;92.30
49222;DHT22;35047;37.588;-122.048;2024-02-16T12:53:08;15.10;92.30
49222;DHT22;35047;37.588;-122.048;2024-02-16T12:55:34;15.10;92.30
49222;DHT22;35047;37.588;-122.048;2024-02-16T12:58:02;15.00;92.20
49222;DHT22;35047;37.588;-122.048;2024-02-16T13:00:28;15.00;92.30
49222;DHT22;35047;37.588;-122.048;2024-02-16T13:02:55;15.00;92.30
49222;DHT22;35047;37.588;-122.048;2024-02-16T13:05:22;15.00;92.30
49222;DHT22;35047;37.588;-122.048;2024-02-16T13:07:48;15.00;92.30
49222;DHT22;35047;37.588;-122.048;2024-02-16T13:10:15;15.00;92.40
49222;DHT22;35047;37.588;-122.048;2024-02-16T13:12:41;15.00;92.40
49222;DHT22;35047;37.588;-122.048;2024-02-16T13:15:09;15.00;92.40
49222;DHT22;35047;37.588;-122.048;2024-02-16T13:17:35;15.00;92.40
49222;DHT22;35047;37.588;-122.048;2024-02-16T13:20:02;15.00;92.40
49222;DHT22;35047;37.588;-122.048;2024-02-16T13:22:36;15.00;92.50
49222;DHT22;35047;37.588;-122.048;2024-02-16T13:25:05;15.00;92.50
49222;DHT22;35047;37.588;-122.048;2024-02-16T13:27:35;15.00;92.50
49222;DHT22;35047;37.588;-122.048;2024-02-16T13:30:01;15.00;92.50
49222;DHT22;35047;37.588;-122.048;2024-02-16T13:32:28;15.00;92.50
49222;DHT22;35047;37.588;-122.048;2024-02-16T13:34:54;15.00;92.60
49222;DHT22;35047;37.588;-122.048;2024-02-16T13:37:21;14.90;92.60
49222;DHT22;35047;37.588;-122.048;2024-02-16T13:39:47;14.90;92.70
49222;DHT22;35047;37.588;-122.048;2024-02-16T13:42:14;14.90;92.80
49222;DHT22;35047;37.588;-122.048;2024-02-16T13:44:40;14.90;92.70
49222;DHT22;35047;37.588;-122.048;2024-02-16T13:47:07;14.90;92.70
49222;DHT22;35047;37.588;-122.048;2024-02-16T13:49:33;14.90;92.70
49222;DHT22;35047;37.588;-122.048;2024-02-16T13:52:00;14.80;92.70
49222;DHT22;35047;37.588;-122.048;2024-02-16T13:54:27;14.80;92.90
49222;DHT22;35047;37.588;-122.048;2024-02-16T13:56:53;14.80;93.00
49222;DHT22;35047;37.588;-122.048;2024-02-16T13:59:20;14.80;93.00
49222;DHT22;35047;37.588;-122.048;2024-02-16T14:01:49;14.80;93.00
49222;DHT22;35047;37.588;-122.048;2024-02-16T14:04:16;14.80;92.90
49222;DHT22;35047;37.588;-122.048;2024-02-16T14:06:42;14.80;92.80
49222;DHT22;35047;37.588;-122.048;2024-02-16T14:09:09;14.80;92.80
49222;DHT22;35047;37.588;-122.048;2024-02-16T14:11:36;14.90;92.80
49222;DHT22;35047;37.588;-122.048;2024-02-16T14:14:02;14.80;92.80
49222;DHT22;35047;37.588;-122.048;2024-02-16T14:16:29;14.80;93.00
49222;DHT22;35047;37.588;-122.048;2024-02-16T14:18:56;14.80;93.00
49222;DHT22;35047;37.588;-122.048;2024-02-16T14:21:23;14.80;93.20
49222;DHT22;35047;37.588;-122.048;2024-02-16T14:23:49;14.80;92.90
49222;DHT22;35047;37.588;-122.048;2024-02-16T14:26:16;14.80;92.80
49222;DHT22;35047;37.588;-122.048;2024-02-16T14:28:43;14.80;92.70
49222;DHT22;35047;37.588;-122.048;2024-02-16T14:31:10;14.80;92.70
49222;DHT22;35047;37.588;-122.048;2024-02-16T14:33:37;14.80;92.70
49222;DHT22;35047;37.588;-122.048;2024-02-16T14:36:04;14.70;92.60
49222;DHT22;35047;37.588;-122.048;2024-02-16T14:38:30;14.80;92.60
49222;DHT22;35047;37.588;-122.048;2024-02-16T14:40:57;14.80;92.60
49222;DHT22;35047;37.588;-122.048;2024-02-16T14:43:24;14.70;92.60
49222;DHT22;35047;37.588;-122.048;2024-02-16T14:45:50;14.80;92.70
49222;DHT22;35047;37.588;-122.048;2024-02-16T14:48:17;14.80;92.60
49222;DHT22;35047;37.588;-122.048;2024-02-16T14:50:44;14.70;92.60
49222;DHT22;35047;37.588;-122.048;2024-02-16T14:53:10;14.70;92.80